createdAt,value
2023-03-15T00:04:38.977Z,1.40
2023-03-15T00:10:04.640Z,1.70
2023-03-15T00:15:32.127Z,1.80
2023-03-15T00:20:38.524Z,1.80
2023-03-15T00:25:45.530Z,1.80
2023-03-15T00:30:50.808Z,1.90
2023-03-15T00:35:56.383Z,1.80
2023-03-15T00:41:06.510Z,1.80
2023-03-15T00:46:13.230Z,1.30
2023-03-15T00:51:21.494Z,2.00
2023-03-15T00:56:30.171Z,1.30
2023-03-15T01:01:35.641Z,3.10
2023-03-15T01:06:42.488Z,1.50
2023-03-15T01:11:47.842Z,2.00
2023-03-15T01:16:53.349Z,1.80
2023-03-15T01:21:58.683Z,1.60
2023-03-15T01:27:04.234Z,2.30
2023-03-15T01:32:10.187Z,1.50
2023-03-15T01:37:15.881Z,2.10
2023-03-15T01:42:21.243Z,1.50
2023-03-15T01:47:27.647Z,1.30
2023-03-15T01:52:37.229Z,1.50
2023-03-15T01:57:46.199Z,2.50
2023-03-15T02:02:55.792Z,1.50
2023-03-15T02:08:01.852Z,1.80
2023-03-15T02:13:08.656Z,2.60
2023-03-15T02:18:14.038Z,1.50
2023-03-15T02:23:24.194Z,1.10
2023-03-15T02:28:29.987Z,1.50
2023-03-15T02:33:41.981Z,1.70
2023-03-15T02:38:48.180Z,3.00
2023-03-15T02:43:56.958Z,1.60
2023-03-15T02:49:02.952Z,1.50
2023-03-15T02:54:08.461Z,1.50
2023-03-15T02:59:13.751Z,2.00
2023-03-15T03:04:19.200Z,1.30
2023-03-15T03:09:24.897Z,1.20
2023-03-15T03:14:31.333Z,1.40
2023-03-15T03:19:36.674Z,1.40
2023-03-15T03:24:45.970Z,1.70
2023-03-15T03:29:51.827Z,1.20
2023-03-15T03:34:57.309Z,2.10
2023-03-15T03:40:07.772Z,0.80
2023-03-15T03:45:13.442Z,1.30
2023-03-15T03:50:18.943Z,1.50
2023-03-15T03:55:25.461Z,1.30
2023-03-15T04:00:30.788Z,1.90
2023-03-15T04:05:36.674Z,1.60
2023-03-15T04:10:42.099Z,1.20
2023-03-15T04:15:48.128Z,1.00
2023-03-15T04:20:54.905Z,1.00
2023-03-15T04:26:00.356Z,0.80
2023-03-15T04:31:10.766Z,2.10
2023-03-15T04:36:19.058Z,1.30
2023-03-15T04:41:27.040Z,2.00
2023-03-15T04:46:33.045Z,1.30
2023-03-15T04:51:38.491Z,1.10
2023-03-15T04:56:43.930Z,1.30
2023-03-15T05:01:49.462Z,1.50
2023-03-15T05:06:54.974Z,1.40
2023-03-15T05:12:00.355Z,1.40
2023-03-15T05:17:05.697Z,1.90
2023-03-15T05:22:11.361Z,2.10
2023-03-15T05:27:16.627Z,2.10
2023-03-15T05:32:26.867Z,1.90
2023-03-15T05:37:32.850Z,2.00
2023-03-15T05:42:38.222Z,1.60
2023-03-15T05:47:44.001Z,1.60
2023-03-15T05:52:52.028Z,1.60
2023-03-15T05:57:57.322Z,1.60
2023-03-15T06:03:02.783Z,1.70
2023-03-15T06:08:08.141Z,1.50
2023-03-15T06:13:13.649Z,1.30
2023-03-15T06:18:18.939Z,1.60
2023-03-15T06:23:24.283Z,1.60
2023-03-15T06:28:29.584Z,1.60
2023-03-15T06:33:34.940Z,1.70
2023-03-15T06:38:41.779Z,1.60
2023-03-15T06:43:47.126Z,1.90
2023-03-15T06:48:52.401Z,1.80
2023-03-15T06:53:57.736Z,1.70
2023-03-15T06:59:03.158Z,1.60
2023-03-15T07:04:09.709Z,2.10
2023-03-15T07:09:15.143Z,2.10
2023-03-15T07:14:21.235Z,1.70
2023-03-15T07:19:26.657Z,2.10
2023-03-15T07:24:32.439Z,2.10
2023-03-15T07:29:37.930Z,2.10
2023-03-15T07:34:43.554Z,1.70
2023-03-15T07:39:48.921Z,1.70
2023-03-15T07:44:54.346Z,2.30
2023-03-15T07:50:00.205Z,2.10
2023-03-15T07:55:08.736Z,1.70
2023-03-15T08:00:16.565Z,2.50
2023-03-15T08:05:22.147Z,2.10
2023-03-15T08:10:28.015Z,2.10
2023-03-15T08:15:33.547Z,2.00
2023-03-15T08:20:38.865Z,2.80
2023-03-15T08:25:44.802Z,2.10
2023-03-15T08:30:50.443Z,3.00
2023-03-15T08:35:56.434Z,2.50
2023-03-15T08:41:01.944Z,2.20
2023-03-15T08:46:07.564Z,2.70
2023-03-15T08:51:13.558Z,2.30
2023-03-15T08:56:19.042Z,2.30
2023-03-15T09:01:24.396Z,2.10
2023-03-15T09:06:29.802Z,1.90
2023-03-15T09:11:35.079Z,1.90
2023-03-15T09:16:40.487Z,2.00
2023-03-15T09:21:47.232Z,2.00
2023-03-15T09:26:52.946Z,1.80
2023-03-15T09:31:58.321Z,1.80
2023-03-15T09:37:03.970Z,1.90
2023-03-15T09:42:16.270Z,1.40
2023-03-15T09:47:35.560Z,1.70
2023-03-15T09:52:46.590Z,2.10
2023-03-15T09:57:57.232Z,1.40
2023-03-15T10:03:09.870Z,2.00
2023-03-15T10:08:17.647Z,1.60
2023-03-15T10:13:45.733Z,1.30
2023-03-15T10:19:02.638Z,1.40
2023-03-15T10:24:16.127Z,1.80
2023-03-15T10:29:24.803Z,1.70
2023-03-15T10:34:30.782Z,1.80
2023-03-15T10:39:36.096Z,1.70
2023-03-15T10:44:41.334Z,1.60
2023-03-15T10:49:46.859Z,1.80
2023-03-15T10:54:58.812Z,1.30
2023-03-15T11:00:26.915Z,2.10
2023-03-15T11:05:39.000Z,1.80
2023-03-15T11:10:45.891Z,1.70
2023-03-15T11:16:04.551Z,1.60
2023-03-15T11:21:14.842Z,1.50
2023-03-15T11:26:32.374Z,1.30
2023-03-15T11:31:38.929Z,1.40
2023-03-15T11:36:49.061Z,1.50
2023-03-15T11:42:04.999Z,1.40
2023-03-15T11:47:16.821Z,1.20
2023-03-15T11:52:24.948Z,1.20
2023-03-15T11:57:45.510Z,1.20
2023-03-15T12:02:54.108Z,1.10
2023-03-15T12:08:15.633Z,1.00
2023-03-15T12:13:25.498Z,1.10
2023-03-15T12:18:38.916Z,1.30
2023-03-15T12:23:58.082Z,1.20
2023-03-15T12:29:18.418Z,1.10
2023-03-15T12:34:43.748Z,1.00
2023-03-15T12:39:51.577Z,1.40
2023-03-15T12:45:37.595Z,1.60
2023-03-15T12:50:52.837Z,1.00
2023-03-15T12:56:11.478Z,1.20
2023-03-15T13:01:18.650Z,1.40
2023-03-15T13:06:37.509Z,1.00
2023-03-15T13:11:51.360Z,1.00
2023-03-15T13:17:05.818Z,0.90
2023-03-15T13:22:22.225Z,1.50
2023-03-15T13:27:45.333Z,1.40
2023-03-15T13:33:01.354Z,1.20
2023-03-15T13:38:22.199Z,1.00
2023-03-15T13:43:30.093Z,1.20
2023-03-15T13:48:37.200Z,2.90
2023-03-15T13:53:49.855Z,1.30
2023-03-15T13:58:56.806Z,1.10
2023-03-15T14:04:06.346Z,1.20
2023-03-15T14:09:18.099Z,1.00
2023-03-15T14:14:28.069Z,1.20
2023-03-15T14:19:34.931Z,0.90
2023-03-15T14:24:42.273Z,1.10
2023-03-15T14:29:50.304Z,1.30
2023-03-15T14:35:02.685Z,1.30
2023-03-15T14:40:16.044Z,1.30
2023-03-15T14:45:23.070Z,0.90
2023-03-15T14:50:33.518Z,0.50
2023-03-15T14:55:39.244Z,0.70
2023-03-15T15:00:46.991Z,0.60
2023-03-15T15:05:52.437Z,0.60
2023-03-15T15:10:58.613Z,0.60
2023-03-15T15:16:04.912Z,0.50
2023-03-15T15:21:18.837Z,0.80
2023-03-15T15:26:27.136Z,0.80
2023-03-15T15:31:35.602Z,0.70
2023-03-15T15:36:42.396Z,0.80
2023-03-15T15:41:47.999Z,0.70
2023-03-15T15:46:53.724Z,0.80
2023-03-15T15:51:59.114Z,1.20
2023-03-15T15:57:04.927Z,1.00
2023-03-15T16:02:17.508Z,1.10
2023-03-15T16:07:23.926Z,1.50
2023-03-15T16:12:29.688Z,1.00
2023-03-15T16:17:35.357Z,1.40
2023-03-15T16:22:43.805Z,1.30
2023-03-15T16:27:49.140Z,0.80
2023-03-15T16:32:55.338Z,0.70
2023-03-15T16:38:01.736Z,0.20
2023-03-15T16:43:08.749Z,0.50
2023-03-15T16:48:14.832Z,0.60
2023-03-15T16:53:20.609Z,0.70
2023-03-15T16:58:26.661Z,0.60
2023-03-15T17:03:32.995Z,0.70
2023-03-15T17:08:38.631Z,1.00
2023-03-15T17:13:44.063Z,0.80
2023-03-15T17:18:49.604Z,1.10
2023-03-15T17:23:55.120Z,1.10
2023-03-15T17:29:01.123Z,1.00
2023-03-15T17:34:06.545Z,1.00
2023-03-15T17:39:17.129Z,1.60
2023-03-15T17:44:23.399Z,1.80
2023-03-15T17:49:28.679Z,2.10
2023-03-15T17:54:34.814Z,2.30
2023-03-15T17:59:40.264Z,1.70
2023-03-15T18:04:46.272Z,1.60
2023-03-15T18:09:51.597Z,1.10
2023-03-15T18:14:59.563Z,1.00
2023-03-15T18:20:08.820Z,0.70
2023-03-15T18:25:19.517Z,0.90
2023-03-15T18:30:26.872Z,1.00
2023-03-15T18:35:35.016Z,1.70
2023-03-15T18:40:40.488Z,1.00
2023-03-15T18:45:45.821Z,1.70
2023-03-15T18:50:52.286Z,1.60
2023-03-15T18:55:57.740Z,1.60
2023-03-15T19:01:03.140Z,1.30
2023-03-15T19:06:11.790Z,1.40
2023-03-15T19:11:17.808Z,1.30
2023-03-15T19:16:23.924Z,1.20
2023-03-15T19:21:29.478Z,1.40
2023-03-15T19:26:34.973Z,1.30
2023-03-15T19:31:40.338Z,1.60
2023-03-15T19:36:45.741Z,1.40
2023-03-15T19:41:51.038Z,1.40
2023-03-15T19:46:56.461Z,1.50
2023-03-15T19:52:01.722Z,1.40
2023-03-15T19:57:07.180Z,1.50
2023-03-15T20:02:13.705Z,2.00
2023-03-15T20:07:20.157Z,2.90
2023-03-15T20:12:25.523Z,1.60
2023-03-15T20:17:30.933Z,1.70
2023-03-15T20:22:36.490Z,1.50
2023-03-15T20:27:42.700Z,1.60
2023-03-15T20:32:48.076Z,1.30
2023-03-15T20:37:53.657Z,1.90
2023-03-15T20:42:58.946Z,1.70
2023-03-15T20:48:04.976Z,2.80
2023-03-15T20:53:10.361Z,2.30
2023-03-15T20:58:15.688Z,2.50
2023-03-15T21:03:23.065Z,2.20
2023-03-15T21:08:28.775Z,2.20
2023-03-15T21:13:34.541Z,2.40
2023-03-15T21:18:40.030Z,2.00
2023-03-15T21:23:45.589Z,2.20
2023-03-15T21:28:51.263Z,2.60
2023-03-15T21:33:56.749Z,2.80
2023-03-15T21:39:02.100Z,2.80
2023-03-15T21:44:08.407Z,2.20
2023-03-15T21:49:13.823Z,2.30
2023-03-15T21:54:19.292Z,2.70
2023-03-15T21:59:27.982Z,1.90
2023-03-15T22:04:34.100Z,2.40
2023-03-15T22:09:41.282Z,2.50
2023-03-15T22:14:51.616Z,2.20
2023-03-15T22:19:59.614Z,2.60
2023-03-15T22:25:05.481Z,2.80
2023-03-15T22:30:14.609Z,2.50
2023-03-15T22:35:20.437Z,2.40
2023-03-15T22:40:27.957Z,2.30
2023-03-15T22:45:33.615Z,2.20
2023-03-15T22:50:38.990Z,2.10
2023-03-15T22:55:45.195Z,2.20
2023-03-15T23:00:51.137Z,2.80
2023-03-15T23:05:57.634Z,1.80
2023-03-15T23:11:03.889Z,1.90
2023-03-15T23:16:09.979Z,2.40
2023-03-15T23:21:15.937Z,1.90
2023-03-15T23:26:25.242Z,1.90
2023-03-15T23:31:30.662Z,1.60
2023-03-15T23:36:36.310Z,2.00
2023-03-15T23:41:41.638Z,1.90
2023-03-15T23:46:46.929Z,2.30
2023-03-15T23:51:54.387Z,1.70
2023-03-15T23:57:00.159Z,1.80
